sensor_id;sensor_type;location;lat;lon;timestamp;pressure;altitude;pressure_sealevel;temperature;humidity
40918;BME280;26644;50.248;19.032;2022-12-05T01:36:32;98473.69;;;1.59;83.58
40918;BME280;26644;50.248;19.032;2022-12-05T01:37:50;98466.19;;;1.62;84.06
40918;BME280;26644;50.248;19.032;2022-12-05T01:40:24;98459.75;;;1.63;83.68
40918;BME280;26644;50.248;19.032;2022-12-05T01:42:57;98460.09;;;1.66;83.71
40918;BME280;26644;50.248;19.032;2022-12-05T01:45:34;98462.63;;;1.68;83.71
40918;BME280;26644;50.248;19.032;2022-12-05T01:47:07;98458.25;;;1.67;83.26
40918;BME280;26644;50.248;19.032;2022-12-05T01:49:31;98452.44;;;1.63;83.50
40918;BME280;26644;50.248;19.032;2022-12-05T01:52:06;98461.81;;;1.60;83.40
40918;BME280;26644;50.248;19.032;2022-12-05T02:37:51;98482.72;;;1.53;83.96
40918;BME280;26644;50.248;19.032;2022-12-05T02:39:08;98494.34;;;1.54;83.66
40918;BME280;26644;50.248;19.032;2022-12-05T02:40:24;98489.56;;;1.56;83.77
40918;BME280;26644;50.248;19.032;2022-12-05T02:41:36;98494.75;;;1.57;83.50
40918;BME280;26644;50.248;19.032;2022-12-05T02:42:52;98483.09;;;1.57;83.56
40918;BME280;26644;50.248;19.032;2022-12-05T02:44:06;98485.59;;;1.58;83.42
40918;BME280;26644;50.248;19.032;2022-12-05T02:45:17;98481.22;;;1.57;83.54
40918;BME280;26644;50.248;19.032;2022-12-05T02:46:26;98485.59;;;1.58;83.46
40918;BME280;26644;50.248;19.032;2022-12-05T02:47:36;98482.66;;;1.60;83.42
40918;BME280;26644;50.248;19.032;2022-12-05T02:48:45;98486.19;;;1.60;83.21
40918;BME280;26644;50.248;19.032;2022-12-05T02:49:51;98480.78;;;1.60;83.24
40918;BME280;26644;50.248;19.032;2022-12-05T02:50:57;98491.59;;;1.60;82.93
40918;BME280;26644;50.248;19.032;2022-12-05T02:52:07;98485.38;;;1.60;82.67
40918;BME280;26644;50.248;19.032;2022-12-05T02:53:16;98481.81;;;1.59;83.05
40918;BME280;26644;50.248;19.032;2022-12-05T02:54:25;98480.78;;;1.60;83.06
40918;BME280;26644;50.248;19.032;2022-12-05T02:55:33;98479.97;;;1.60;83.44
40918;BME280;26644;50.248;19.032;2022-12-05T02:56:39;98485.16;;;1.62;83.59
40918;BME280;26644;50.248;19.032;2022-12-05T02:57:51;98480.31;;;1.64;83.31
40918;BME280;26644;50.248;19.032;2022-12-05T02:58:55;98485.53;;;1.65;83.29
40918;BME280;26644;50.248;19.032;2022-12-05T02:59:57;98488.03;;;1.67;83.02
40918;BME280;26644;50.248;19.032;2022-12-05T03:00:59;98493.44;;;1.67;83.03
40918;BME280;26644;50.248;19.032;2022-12-05T03:02:02;98487.19;;;1.66;82.73
40918;BME280;26644;50.248;19.032;2022-12-05T03:03:13;98480.94;;;1.66;82.99
40918;BME280;26644;50.248;19.032;2022-12-05T03:04:21;98478.06;;;1.60;82.93
40918;BME280;26644;50.248;19.032;2022-12-05T03:05:33;98483.47;;;1.60;82.52
40918;BME280;26644;50.248;19.032;2022-12-05T03:06:47;98483.72;;;1.59;83.11
40918;BME280;26644;50.248;19.032;2022-12-05T03:07:57;98489.34;;;1.57;82.96
40918;BME280;26644;50.248;19.032;2022-12-05T03:09:06;98476.22;;;1.54;82.80
40918;BME280;26644;50.248;19.032;2022-12-05T03:10:14;98485.59;;;1.58;83.07
40918;BME280;26644;50.248;19.032;2022-12-05T03:11:21;98486.41;;;1.59;82.96
40918;BME280;26644;50.248;19.032;2022-12-05T03:12:29;98489.13;;;1.59;83.13
40918;BME280;26644;50.248;19.032;2022-12-05T03:13:41;98478.28;;;1.59;82.70
40918;BME280;26644;50.248;19.032;2022-12-05T03:14:52;98478.06;;;1.60;82.76
40918;BME280;26644;50.248;19.032;2022-12-05T03:16:02;98478.06;;;1.60;82.86
40918;BME280;26644;50.248;19.032;2022-12-05T03:17:13;98468.13;;;1.54;82.84
40918;BME280;26644;50.248;19.032;2022-12-05T03:18:23;98479.28;;;1.65;82.90
40918;BME280;26644;50.248;19.032;2022-12-05T03:19:39;98480.94;;;1.66;82.74
40918;BME280;26644;50.248;19.032;2022-12-05T03:20:55;98483.44;;;1.67;82.94
40918;BME280;26644;50.248;19.032;2022-12-05T03:22:05;98481.13;;;1.71;83.10
40918;BME280;26644;50.248;19.032;2022-12-05T03:23:14;98486.53;;;1.71;82.46
40918;BME280;26644;50.248;19.032;2022-12-05T03:24:22;98485.50;;;1.72;83.00
40918;BME280;26644;50.248;19.032;2022-12-05T03:25:34;98485.03;;;1.75;82.31
40918;BME280;26644;50.248;19.032;2022-12-05T03:26:49;98480.28;;;1.70;82.40
40918;BME280;26644;50.248;19.032;2022-12-05T03:28:06;98488.78;;;1.74;82.56
40918;BME280;26644;50.248;19.032;2022-12-05T03:29:24;98482.16;;;1.70;82.39
40918;BME280;26644;50.248;19.032;2022-12-05T03:30:37;98490.44;;;1.75;82.70
40918;BME280;26644;50.248;19.032;2022-12-05T03:31:44;98489.41;;;1.76;82.29
40918;BME280;26644;50.248;19.032;2022-12-05T03:32:59;98497.91;;;1.80;82.84
40918;BME280;26644;50.248;19.032;2022-12-05T03:34:12;98490.41;;;1.82;82.61
40918;BME280;26644;50.248;19.032;2022-12-05T03:35:23;98490.78;;;1.85;82.37
40918;BME280;26644;50.248;19.032;2022-12-05T03:36:39;98485.97;;;1.87;82.50
40918;BME280;26644;50.248;19.032;2022-12-05T03:37:51;98490.97;;;1.90;82.50
40918;BME280;26644;50.248;19.032;2022-12-05T03:39:02;98481.56;;;1.93;81.96
40918;BME280;26644;50.248;19.032;2022-12-05T03:40:19;98476.16;;;1.93;81.78
40918;BME280;26644;50.248;19.032;2022-12-05T03:41:36;98485.91;;;1.94;81.81
40918;BME280;26644;50.248;19.032;2022-12-05T03:42:50;98483.19;;;1.94;82.16
40918;BME280;26644;50.248;19.032;2022-12-05T03:44:00;98474.25;;;1.93;81.74
40918;BME280;26644;50.248;19.032;2022-12-05T03:45:11;98480.28;;;1.96;81.65
40918;BME280;26644;50.248;19.032;2022-12-05T03:46:25;98478.41;;;1.96;81.87
40918;BME280;26644;50.248;19.032;2022-12-05T03:47:39;98474.25;;;1.93;81.40
40918;BME280;26644;50.248;19.032;2022-12-05T03:48:56;98469.66;;;1.94;81.72
40918;BME280;26644;50.248;19.032;2022-12-05T03:50:09;98470.50;;;1.94;81.84
40918;BME280;26644;50.248;19.032;2022-12-05T03:51:21;98470.94;;;1.91;81.70
40918;BME280;26644;50.248;19.032;2022-12-05T03:52:32;98472.00;;;1.90;81.60
40918;BME280;26644;50.248;19.032;2022-12-05T03:53:45;98472.44;;;1.87;81.65
40918;BME280;26644;50.248;19.032;2022-12-05T03:54:57;98460.84;;;1.80;81.85
40918;BME280;26644;50.248;19.032;2022-12-05T03:56:08;98470.16;;;1.84;82.02
40918;BME280;26644;50.248;19.032;2022-12-05T03:57:21;98464.13;;;1.82;82.23
40918;BME280;26644;50.248;19.032;2022-12-05T03:58:34;98470.16;;;1.84;82.01
40918;BME280;26644;50.248;19.032;2022-12-05T03:59:45;98462.06;;;1.84;82.10
40918;BME280;26644;50.248;19.032;2022-12-05T04:00:53;98467.25;;;1.86;82.24
40918;BME280;26644;50.248;19.032;2022-12-05T04:02:06;98454.97;;;1.83;81.70
40918;BME280;26644;50.248;19.032;2022-12-05T04:03:19;98460.16;;;1.85;81.84
40918;BME280;26644;50.248;19.032;2022-12-05T04:04:32;98467.47;;;1.84;81.68
40918;BME280;26644;50.248;19.032;2022-12-05T04:05:43;98459.56;;;1.83;81.72
40918;BME280;26644;50.248;19.032;2022-12-05T04:06:52;98449.78;;;1.82;81.54
40918;BME280;26644;50.248;19.032;2022-12-05T04:08:00;98450.47;;;1.77;81.89
40918;BME280;26644;50.248;19.032;2022-12-05T04:09:10;98449.03;;;1.74;82.13
40918;BME280;26644;50.248;19.032;2022-12-05T04:10:21;98452.78;;;1.73;82.14
40918;BME280;26644;50.248;19.032;2022-12-05T04:11:34;98456.53;;;1.72;81.87
40918;BME280;26644;50.248;19.032;2022-12-05T04:12:43;98462.75;;;1.73;82.40
40918;BME280;26644;50.248;19.032;2022-12-05T04:13:51;98462.75;;;1.73;82.23
40918;BME280;26644;50.248;19.032;2022-12-05T04:14:59;98459.22;;;1.72;81.89
40918;BME280;26644;50.248;19.032;2022-12-05T04:16:10;98467.34;;;1.72;82.08
40918;BME280;26644;50.248;19.032;2022-12-05T04:17:43;98460.28;;;1.71;82.28
40918;BME280;26644;50.248;19.032;2022-12-05T04:18:57;98455.72;;;1.72;82.04
40918;BME280;26644;50.248;19.032;2022-12-05T04:20:09;98460.50;;;1.70;81.85
40918;BME280;26644;50.248;19.032;2022-12-05T04:21:39;98449.69;;;1.70;82.10
40918;BME280;26644;50.248;19.032;2022-12-05T04:22:44;98444.03;;;1.71;82.63
40918;BME280;26644;50.248;19.032;2022-12-05T04:23:48;98448.63;;;1.71;82.16
40918;BME280;26644;50.248;19.032;2022-12-05T04:25:14;98445.53;;;1.67;81.94
40918;BME280;26644;50.248;19.032;2022-12-05T04:26:35;98441.38;;;1.65;82.28
40918;BME280;26644;50.248;19.032;2022-12-05T04:27:52;98439.94;;;1.62;81.82
40918;BME280;26644;50.248;19.032;2022-12-05T04:29:06;98434.19;;;1.58;82.13
40918;BME280;26644;50.248;19.032;2022-12-05T04:30:16;98444.38;;;1.56;82.43
40918;BME280;26644;50.248;19.032;2022-12-05T04:31:25;98432.78;;;1.49;82.09
40918;BME280;26644;50.248;19.032;2022-12-05T04:32:41;98430.69;;;1.51;82.77
40918;BME280;26644;50.248;19.032;2022-12-05T04:33:51;98439.19;;;1.55;82.39
40918;BME280;26644;50.248;19.032;2022-12-05T04:35:02;98450.41;;;1.58;82.33
40918;BME280;26644;50.248;19.032;2022-12-05T04:36:15;98436.66;;;1.60;82.61
40918;BME280;26644;50.248;19.032;2022-12-05T04:37:23;98427.47;;;1.61;82.65
40918;BME280;26644;50.248;19.032;2022-12-05T04:38:34;98423.13;;;1.60;82.38
40918;BME280;26644;50.248;19.032;2022-12-05T04:39:48;98429.34;;;1.60;82.11
40918;BME280;26644;50.248;19.032;2022-12-05T04:40:59;98426.66;;;1.60;82.57
40918;BME280;26644;50.248;19.032;2022-12-05T04:42:09;98427.47;;;1.61;82.56
40918;BME280;26644;50.248;19.032;2022-12-05T04:43:18;98439.13;;;1.62;82.37
40918;BME280;26644;50.248;19.032;2022-12-05T04:44:27;98434.31;;;1.64;82.63
40918;BME280;26644;50.248;19.032;2022-12-05T04:45:36;98433.50;;;1.63;82.31
40918;BME280;26644;50.248;19.032;2022-12-05T04:46:43;98430.78;;;1.63;82.49
40918;BME280;26644;50.248;19.032;2022-12-05T04:47:53;98427.25;;;1.63;82.30
40918;BME280;26644;50.248;19.032;2022-12-05T04:49:05;98422.66;;;1.63;82.28
40918;BME280;26644;50.248;19.032;2022-12-05T04:50:13;98429.75;;;1.64;82.59
40918;BME280;26644;50.248;19.032;2022-12-05T04:51:22;98429.75;;;1.64;82.56
40918;BME280;26644;50.248;19.032;2022-12-05T04:52:28;98432.69;;;1.63;82.40
40918;BME280;26644;50.248;19.032;2022-12-05T04:53:34;98428.69;;;1.65;82.29
40918;BME280;26644;50.248;19.032;2022-12-05T04:54:40;98429.28;;;1.67;82.58
40918;BME280;26644;50.248;19.032;2022-12-05T04:55:50;98411.09;;;1.56;82.47
40918;BME280;26644;50.248;19.032;2022-12-05T04:57:01;98422.84;;;1.68;82.50
40918;BME280;26644;50.248;19.032;2022-12-05T04:58:17;98425.53;;;1.68;82.25
40918;BME280;26644;50.248;19.032;2022-12-05T04:59:21;98436.13;;;1.70;82.62
40918;BME280;26644;50.248;19.032;2022-12-05T05:00:23;98435.91;;;1.71;82.31
40918;BME280;26644;50.248;19.032;2022-12-05T05:01:33;98436.31;;;1.75;82.63
40918;BME280;26644;50.248;19.032;2022-12-05T05:02:44;98433.22;;;1.71;82.63
40918;BME280;26644;50.248;19.032;2022-12-05T05:03:55;98442.53;;;1.75;82.39
40918;BME280;26644;50.248;19.032;2022-12-05T05:05:08;98435.69;;;1.73;82.47
40918;BME280;26644;50.248;19.032;2022-12-05T05:06:14;98442.19;;;1.72;82.52
40918;BME280;26644;50.248;19.032;2022-12-05T05:07:16;98441.56;;;1.70;82.43
40918;BME280;26644;50.248;19.032;2022-12-05T05:08:23;98442.81;;;1.67;82.20
40918;BME280;26644;50.248;19.032;2022-12-05T05:09:25;98442.25;;;1.65;82.53
40918;BME280;26644;50.248;19.032;2022-12-05T05:10:32;98443.88;;;1.66;83.10
40918;BME280;26644;50.248;19.032;2022-12-05T05:11:39;98442.66;;;1.62;82.99
40918;BME280;26644;50.248;19.032;2022-12-05T05:12:43;98437.47;;;1.60;82.78
40918;BME280;26644;50.248;19.032;2022-12-05T05:13:44;98442.88;;;1.60;82.88
40918;BME280;26644;50.248;19.032;2022-12-05T05:14:46;98447.69;;;1.58;83.04
40918;BME280;26644;50.248;19.032;2022-12-05T05:15:48;98438.34;;;1.54;83.13
40918;BME280;26644;50.248;19.032;2022-12-05T05:16:50;98443.75;;;1.54;83.48
40918;BME280;26644;50.248;19.032;2022-12-05T05:17:53;98443.56;;;1.56;83.22
40918;BME280;26644;50.248;19.032;2022-12-05T05:18:55;98438.97;;;1.56;83.38
40918;BME280;26644;50.248;19.032;2022-12-05T05:19:57;98447.31;;;1.55;83.50
40918;BME280;26644;50.248;19.032;2022-12-05T05:21:26;98450.00;;;1.55;83.13
40918;BME280;26644;50.248;19.032;2022-12-05T05:22:30;98444.38;;;1.56;83.51
40918;BME280;26644;50.248;19.032;2022-12-05T05:23:31;98453.53;;;1.55;83.25
40918;BME280;26644;50.248;19.032;2022-12-05T05:24:33;98448.13;;;1.55;83.25
40918;BME280;26644;50.248;19.032;2022-12-05T05:25:35;98446.28;;;1.56;83.59
40918;BME280;26644;50.248;19.032;2022-12-05T05:26:40;98449.56;;;1.58;83.34
40918;BME280;26644;50.248;19.032;2022-12-05T05:27:47;98440.41;;;1.59;83.50
40918;BME280;26644;50.248;19.032;2022-12-05T05:28:51;98443.94;;;1.59;83.35
40918;BME280;26644;50.248;19.032;2022-12-05T05:29:54;98442.88;;;1.60;82.94
40918;BME280;26644;50.248;19.032;2022-12-05T05:31:00;98425.88;;;1.53;82.96
40918;BME280;26644;50.248;19.032;2022-12-05T05:32:04;98445.19;;;1.57;83.29
40918;BME280;26644;50.248;19.032;2022-12-05T05:33:05;98443.56;;;1.56;83.03
40918;BME280;26644;50.248;19.032;2022-12-05T05:34:09;98439.63;;;1.52;83.05
40918;BME280;26644;50.248;19.032;2022-12-05T05:35:11;98442.31;;;1.52;83.22
40918;BME280;26644;50.248;19.032;2022-12-05T05:36:14;98433.38;;;1.51;83.19
40918;BME280;26644;50.248;19.032;2022-12-05T05:37:17;98437.75;;;1.52;83.37
40918;BME280;26644;50.248;19.032;2022-12-05T05:38:18;98429.41;;;1.54;83.36
40918;BME280;26644;50.248;19.032;2022-12-05T05:39:21;98440.00;;;1.55;83.43
40918;BME280;26644;50.248;19.032;2022-12-05T05:40:22;98436.25;;;1.56;83.37
40918;BME280;26644;50.248;19.032;2022-12-05T05:41:26;98421.75;;;1.51;83.15
40918;BME280;26644;50.248;19.032;2022-12-05T05:42:29;98436.03;;;1.58;83.37
40918;BME280;26644;50.248;19.032;2022-12-05T05:43:33;98420.41;;;1.60;82.82
40918;BME280;26644;50.248;19.032;2022-12-05T05:44:34;98428.09;;;1.63;83.41
40918;BME280;26644;50.248;19.032;2022-12-05T05:45:36;98424.56;;;1.63;83.42
40918;BME280;26644;50.248;19.032;2022-12-05T05:46:38;98433.88;;;1.67;82.79
40918;BME280;26644;50.248;19.032;2022-12-05T05:47:42;98434.94;;;1.66;82.94
40918;BME280;26644;50.248;19.032;2022-12-05T05:48:44;98419.22;;;1.56;82.90
40918;BME280;26644;50.248;19.032;2022-12-05T05:49:46;98431.41;;;1.65;83.03
40918;BME280;26644;50.248;19.032;2022-12-05T05:50:47;98423.28;;;1.65;83.27
40918;BME280;26644;50.248;19.032;2022-12-05T05:51:49;98424.91;;;1.66;82.87
40918;BME280;26644;50.248;19.032;2022-12-05T05:52:51;98423.06;;;1.67;82.66
40918;BME280;26644;50.248;19.032;2022-12-05T05:53:54;98423.06;;;1.67;82.97
40918;BME280;26644;50.248;19.032;2022-12-05T05:54:55;98423.88;;;1.67;82.86
40918;BME280;26644;50.248;19.032;2022-12-05T05:56:01;98429.06;;;1.69;82.93
40918;BME280;26644;50.248;19.032;2022-12-05T05:57:02;98436.13;;;1.70;83.02
40918;BME280;26644;50.248;19.032;2022-12-05T05:58:06;98429.06;;;1.69;83.13
40918;BME280;26644;50.248;19.032;2022-12-05T05:59:09;98423.88;;;1.67;82.58
40918;BME280;26644;50.248;19.032;2022-12-05T06:00:12;98429.28;;;1.67;82.39
40918;BME280;26644;50.248;19.032;2022-12-05T06:01:18;98419.50;;;1.66;83.02
40918;BME280;26644;50.248;19.032;2022-12-05T06:02:20;98413.72;;;1.63;82.66
40918;BME280;26644;50.248;19.032;2022-12-05T06:03:22;98422.91;;;1.62;83.20
40918;BME280;26644;50.248;19.032;2022-12-05T06:04:25;98422.66;;;1.63;82.81
40918;BME280;26644;50.248;19.032;2022-12-05T06:05:26;98417.25;;;1.63;83.19
40918;BME280;26644;50.248;19.032;2022-12-05T06:06:28;98427.25;;;1.63;83.15
40918;BME280;26644;50.248;19.032;2022-12-05T06:07:30;98418.28;;;1.62;82.71
40918;BME280;26644;50.248;19.032;2022-12-05T06:08:36;98416.63;;;1.61;82.99
40918;BME280;26644;50.248;19.032;2022-12-05T06:09:39;98413.94;;;1.61;82.96
40918;BME280;26644;50.248;19.032;2022-12-05T06:10:42;98418.28;;;1.62;82.94
40918;BME280;26644;50.248;19.032;2022-12-05T06:11:43;98415.81;;;1.60;83.41
40918;BME280;26644;50.248;19.032;2022-12-05T06:12:45;98416.44;;;1.63;83.06
40918;BME280;26644;50.248;19.032;2022-12-05T06:13:48;98422.66;;;1.63;82.89
40918;BME280;26644;50.248;19.032;2022-12-05T06:14:51;98420.03;;;1.56;83.07
40918;BME280;26644;50.248;19.032;2022-12-05T06:15:52;98421.69;;;1.57;82.84
40918;BME280;26644;50.248;19.032;2022-12-05T06:16:55;98417.94;;;1.58;83.39
40918;BME280;26644;50.248;19.032;2022-12-05T06:17:56;98428.75;;;1.58;83.49
40918;BME280;26644;50.248;19.032;2022-12-05T06:18:59;98421.47;;;1.59;83.44
40918;BME280;26644;50.248;19.032;2022-12-05T06:20:00;98416.03;;;1.59;83.11
40918;BME280;26644;50.248;19.032;2022-12-05T06:21:03;98424.97;;;1.59;83.50
40918;BME280;26644;50.248;19.032;2022-12-05T06:22:08;98425.81;;;1.60;83.46
40918;BME280;26644;50.248;19.032;2022-12-05T06:23:10;98423.94;;;1.60;83.38
40918;BME280;26644;50.248;19.032;2022-12-05T06:24:12;98425.81;;;1.60;82.91
40918;BME280;26644;50.248;19.032;2022-12-05T06:25:14;98426.06;;;1.58;82.98
40918;BME280;26644;50.248;19.032;2022-12-05T06:26:18;98430.84;;;1.56;83.38
40918;BME280;26644;50.248;19.032;2022-12-05T06:27:21;98422.03;;;1.61;83.18
40918;BME280;26644;50.248;19.032;2022-12-05T06:28:24;98427.25;;;1.63;83.40
40918;BME280;26644;50.248;19.032;2022-12-05T06:29:27;98423.94;;;1.60;83.12
40918;BME280;26644;50.248;19.032;2022-12-05T06:30:30;98425.78;;;1.67;83.13
40918;BME280;26644;50.248;19.032;2022-12-05T06:31:32;98428.47;;;1.67;83.32
40918;BME280;26644;50.248;19.032;2022-12-05T06:32:34;98427.44;;;1.68;83.39
40918;BME280;26644;50.248;19.032;2022-12-05T06:33:37;98424.50;;;1.69;83.25
40918;BME280;26644;50.248;19.032;2022-12-05T06:34:39;98437.41;;;1.67;83.00
40918;BME280;26644;50.248;19.032;2022-12-05T06:35:41;98434.31;;;1.64;82.92
40918;BME280;26644;50.248;19.032;2022-12-05T06:36:43;98439.53;;;1.65;83.04
40918;BME280;26644;50.248;19.032;2022-12-05T06:37:45;98432.69;;;1.63;83.01
40918;BME280;26644;50.248;19.032;2022-12-05T06:38:46;98435.81;;;1.59;83.24
40918;BME280;26644;50.248;19.032;2022-12-05T06:39:50;98434.19;;;1.58;83.32
40918;BME280;26644;50.248;19.032;2022-12-05T06:40:52;98444.38;;;1.56;83.17
40918;BME280;26644;50.248;19.032;2022-12-05T06:41:54;98437.31;;;1.55;83.42
40918;BME280;26644;50.248;19.032;2022-12-05T06:42:56;98411.03;;;1.37;83.51
40918;BME280;26644;50.248;19.032;2022-12-05T06:43:58;98434.81;;;1.54;83.41
40918;BME280;26644;50.248;19.032;2022-12-05T06:45:01;98436.91;;;1.52;83.68
40918;BME280;26644;50.248;19.032;2022-12-05T06:46:05;98435.03;;;1.52;83.44
40918;BME280;26644;50.248;19.032;2022-12-05T06:47:08;98437.75;;;1.52;83.64
40918;BME280;26644;50.248;19.032;2022-12-05T06:48:10;98437.75;;;1.52;83.59
40918;BME280;26644;50.248;19.032;2022-12-05T06:49:12;98443.16;;;1.52;83.98
40918;BME280;26644;50.248;19.032;2022-12-05T06:50:15;98440.47;;;1.52;83.76
40918;BME280;26644;50.248;19.032;2022-12-05T06:51:16;98441.50;;;1.51;83.96
40918;BME280;26644;50.248;19.032;2022-12-05T06:52:18;98437.81;;;1.46;83.43
40918;BME280;26644;50.248;19.032;2022-12-05T06:53:20;98443.63;;;1.49;83.81
40918;BME280;26644;50.248;19.032;2022-12-05T06:54:22;98443.38;;;1.51;83.85
40918;BME280;26644;50.248;19.032;2022-12-05T06:55:25;98448.56;;;1.52;84.21
40918;BME280;26644;50.248;19.032;2022-12-05T06:56:27;98453.59;;;1.49;83.96
40918;BME280;26644;50.248;19.032;2022-12-05T06:57:29;98458.78;;;1.50;83.87
40918;BME280;26644;50.248;19.032;2022-12-05T06:58:30;98451.28;;;1.52;84.24
40918;BME280;26644;50.248;19.032;2022-12-05T06:59:33;98452.09;;;1.53;83.98
40918;BME280;26644;50.248;19.032;2022-12-05T07:00:35;98451.50;;;1.51;84.13
40918;BME280;26644;50.248;19.032;2022-12-05T07:01:56;98454.38;;;1.56;84.20
40918;BME280;26644;50.248;19.032;2022-12-05T07:02:58;98458.72;;;1.57;84.04
40918;BME280;26644;50.248;19.032;2022-12-05T07:04:00;98455.81;;;1.58;83.89
40918;BME280;26644;50.248;19.032;2022-12-05T07:05:03;98448.28;;;1.60;83.98
40918;BME280;26644;50.248;19.032;2022-12-05T07:06:06;98448.69;;;1.64;84.33
40918;BME280;26644;50.248;19.032;2022-12-05T07:07:08;98456.59;;;1.66;83.95
40918;BME280;26644;50.248;19.032;2022-12-05T07:08:10;98447.41;;;1.67;83.72
40918;BME280;26644;50.248;19.032;2022-12-05T07:09:12;98445.75;;;1.66;83.44
40918;BME280;26644;50.248;19.032;2022-12-05T07:10:14;98448.25;;;1.67;83.84
40918;BME280;26644;50.248;19.032;2022-12-05T07:11:16;98449.91;;;1.68;83.85
40918;BME280;26644;50.248;19.032;2022-12-05T07:12:18;98446.16;;;1.69;83.71
40918;BME280;26644;50.248;19.032;2022-12-05T07:13:20;98450.50;;;1.70;83.14
40918;BME280;26644;50.248;19.032;2022-12-05T07:14:22;98447.59;;;1.72;83.42
40918;BME280;26644;50.248;19.032;2022-12-05T07:15:24;98444.88;;;1.72;83.27
40918;BME280;26644;50.248;19.032;2022-12-05T07:16:26;98442.75;;;1.74;83.41
40918;BME280;26644;50.248;19.032;2022-12-05T07:17:35;98454.22;;;1.76;83.52
40918;BME280;26644;50.248;19.032;2022-12-05T07:18:37;98445.06;;;1.77;83.55
40918;BME280;26644;50.248;19.032;2022-12-05T07:19:40;98449.63;;;1.76;82.80
40918;BME280;26644;50.248;19.032;2022-12-05T07:20:42;98445.69;;;1.72;83.19
40918;BME280;26644;50.248;19.032;2022-12-05T07:21:45;98457.28;;;1.80;83.04
40918;BME280;26644;50.248;19.032;2022-12-05T07:22:47;98448.34;;;1.79;82.79
40918;BME280;26644;50.248;19.032;2022-12-05T07:23:48;98440.91;;;1.74;82.81
40918;BME280;26644;50.248;19.032;2022-12-05T07:24:51;98451.28;;;1.77;83.38
40918;BME280;26644;50.248;19.032;2022-12-05T07:25:52;98456.00;;;1.82;83.60
40918;BME280;26644;50.248;19.032;2022-12-05T07:26:55;98455.59;;;1.85;83.59
40918;BME280;26644;50.248;19.032;2022-12-05T07:27:56;98456.41;;;1.86;83.35
40918;BME280;26644;50.248;19.032;2022-12-05T07:28:59;98458.31;;;1.85;82.95
40918;BME280;26644;50.248;19.032;2022-12-05T07:30:01;98450.19;;;1.85;83.04
40918;BME280;26644;50.248;19.032;2022-12-05T07:31:05;98448.28;;;1.86;82.95
40918;BME280;26644;50.248;19.032;2022-12-05T07:32:08;98455.94;;;1.89;83.11
40918;BME280;26644;50.248;19.032;2022-12-05T07:33:12;98449.72;;;1.88;82.93
40918;BME280;26644;50.248;19.032;2022-12-05T07:34:13;98449.50;;;1.90;82.76
40918;BME280;26644;50.248;19.032;2022-12-05T07:35:15;98450.69;;;1.94;83.11
40918;BME280;26644;50.248;19.032;2022-12-05T07:36:20;98440.94;;;1.93;82.49
40918;BME280;26644;50.248;19.032;2022-12-05T07:37:23;98449.06;;;1.93;82.99
40918;BME280;26644;50.248;19.032;2022-12-05T07:38:25;98459.06;;;1.92;82.96
40918;BME280;26644;50.248;19.032;2022-12-05T07:39:27;98457.19;;;1.93;82.92
40918;BME280;26644;50.248;19.032;2022-12-05T07:40:29;98451.56;;;1.94;82.88
40918;BME280;26644;50.248;19.032;2022-12-05T07:41:32;98456.97;;;1.94;82.79
40918;BME280;26644;50.248;19.032;2022-12-05T07:42:40;98452.97;;;1.97;82.83
40918;BME280;26644;50.248;19.032;2022-12-05T07:43:42;98449.19;;;1.98;82.78
40918;BME280;26644;50.248;19.032;2022-12-05T07:44:44;98438.00;;;1.94;82.51
40918;BME280;26644;50.248;19.032;2022-12-05T07:45:45;98446.88;;;2.02;83.03
40918;BME280;26644;50.248;19.032;2022-12-05T07:46:47;98456.44;;;2.04;83.03
40918;BME280;26644;50.248;19.032;2022-12-05T07:47:50;98446.50;;;1.98;82.29
40918;BME280;26644;50.248;19.032;2022-12-05T07:48:53;98440.72;;;1.94;82.53
40918;BME280;26644;50.248;19.032;2022-12-05T07:49:56;98449.75;;;2.07;82.83
40918;BME280;26644;50.248;19.032;2022-12-05T07:51:00;98447.44;;;2.10;82.88
40918;BME280;26644;50.248;19.032;2022-12-05T07:52:03;98453.44;;;2.13;82.83
40918;BME280;26644;50.248;19.032;2022-12-05T07:53:05;98460.06;;;2.17;82.50
40918;BME280;26644;50.248;19.032;2022-12-05T07:54:07;98455.50;;;2.17;82.33
40918;BME280;26644;50.248;19.032;2022-12-05T07:55:09;98457.16;;;2.18;82.08
40918;BME280;26644;50.248;19.032;2022-12-05T07:56:14;98451.06;;;2.23;82.93
40918;BME280;26644;50.248;19.032;2022-12-05T07:57:18;98460.03;;;2.23;82.22
40918;BME280;26644;50.248;19.032;2022-12-05T07:58:20;98449.84;;;2.19;81.75
40918;BME280;26644;50.248;19.032;2022-12-05T07:59:22;98451.06;;;2.23;81.76
40918;BME280;26644;50.248;19.032;2022-12-05T08:00:24;98453.16;;;2.21;81.52
40918;BME280;26644;50.248;19.032;2022-12-05T08:01:28;98456.75;;;2.15;81.80
40918;BME280;26644;50.248;19.032;2022-12-05T08:02:30;98463.63;;;2.17;81.49
40918;BME280;26644;50.248;19.032;2022-12-05T08:03:32;98459.09;;;2.11;81.70
40918;BME280;26644;50.248;19.032;2022-12-05T08:04:35;98461.38;;;2.14;82.13
40918;BME280;26644;50.248;19.032;2022-12-05T08:05:37;98461.97;;;2.16;82.37
40918;BME280;26644;50.248;19.032;2022-12-05T08:06:38;98460.28;;;2.15;82.26
40918;BME280;26644;50.248;19.032;2022-12-05T08:07:41;98469.84;;;2.18;81.95
40918;BME280;26644;50.248;19.032;2022-12-05T08:08:44;98468.19;;;2.17;81.81
40918;BME280;26644;50.248;19.032;2022-12-05T08:09:49;98461.72;;;2.18;82.05
40918;BME280;26644;50.248;19.032;2022-12-05T08:10:50;98460.91;;;2.17;81.92
40918;BME280;26644;50.248;19.032;2022-12-05T08:11:52;98461.50;;;2.19;82.27
40918;BME280;26644;50.248;19.032;2022-12-05T08:12:54;98460.03;;;2.23;82.34
40918;BME280;26644;50.248;19.032;2022-12-05T08:13:57;98457.91;;;2.25;82.07
40918;BME280;26644;50.248;19.032;2022-12-05T08:14:59;98450.75;;;2.31;82.27
40918;BME280;26644;50.248;19.032;2022-12-05T08:16:01;98453.03;;;2.34;81.80
40918;BME280;26644;50.248;19.032;2022-12-05T08:17:04;98455.97;;;2.33;81.54
40918;BME280;26644;50.248;19.032;2022-12-05T08:18:05;98454.66;;;2.35;81.48
40918;BME280;26644;50.248;19.032;2022-12-05T08:19:10;98452.56;;;2.37;81.47